Time,TemperatureF,DewpointF,PressureIn,WindDirection,WindDirectionDegrees,WindSpeedMPH,WindSpeedGustMPH,Humidity,HourlyPrecipIn,Conditions,Clouds,dailyrainin,SoftwareType,DateUTC
2013-04-28 00:00:00,46.1,39.6,30.28,West,261,0.0,1.0,78,0.00,,,0.00,VWS V14.01,2013-04-28 04:00:00,
2013-04-28 00:01:00,46.1,39.6,30.28,West,261,0.0,1.0,78,0.00,,,0.00,VWS V14.01,2013-04-28 04:01:00,
2013-04-28 00:06:00,46.0,39.9,30.28,West,261,0.0,1.0,79,0.00,,,0.00,VWS V14.01,2013-04-28 04:06:00,
2013-04-28 00:11:00,45.9,39.8,30.28,West,261,0.0,1.0,79,0.00,,,0.00,VWS V14.01,2013-04-28 04:11:00,
2013-04-28 00:16:00,45.8,40.0,30.28,West,261,0.0,1.0,80,0.00,,,0.00,VWS V14.01,2013-04-28 04:16:00,
2013-04-28 00:21:00,45.8,40.3,30.28,West,261,0.0,1.0,81,0.00,,,0.00,VWS V14.01,2013-04-28 04:21:00,
2013-04-28 00:26:00,45.6,40.1,30.28,West,261,0.0,1.0,81,0.00,,,0.00,VWS V14.01,2013-04-28 04:26:00,
2013-04-28 00:30:00,45.4,39.9,30.27,West,261,0.0,1.0,81,0.00,,,0.00,VWS V14.01,2013-04-28 04:30:00,
2013-04-28 00:31:00,45.5,40.0,30.27,West,261,0.0,1.0,81,0.00,,,0.00,VWS V14.01,2013-04-28 04:31:00,
2013-04-28 00:36:00,45.2,40.0,30.28,West,261,0.0,0.0,82,0.00,,,0.00,VWS V14.01,2013-04-28 04:36:00,
2013-04-28 00:41:00,45.0,39.8,30.27,West,261,0.0,1.0,82,0.00,,,0.00,VWS V14.01,2013-04-28 04:41:00,
2013-04-28 00:46:00,44.8,40.0,30.27,West,261,0.0,1.0,83,0.00,,,0.00,VWS V14.01,2013-04-28 04:46:00,
2013-04-28 00:51:00,44.6,40.1,30.27,West,261,0.0,1.0,84,0.00,,,0.00,VWS V14.01,2013-04-28 04:51:00,
2013-04-28 00:56:00,44.5,40.0,30.27,West,261,0.0,1.0,84,0.00,,,0.00,VWS V14.01,2013-04-28 04:56:00,
2013-04-28 01:01:00,44.2,40.0,30.27,West,261,0.0,1.0,85,0.00,,,0.00,VWS V14.01,2013-04-28 05:01:00,
2013-04-28 01:06:00,44.1,39.9,30.27,West,261,0.0,0.0,85,0.00,,,0.00,VWS V14.01,2013-04-28 05:06:00,
2013-04-28 01:11:00,44.0,40.1,30.27,West,261,0.0,0.0,86,0.00,,,0.00,VWS V14.01,2013-04-28 05:11:00,
2013-04-28 01:16:00,43.8,39.9,30.27,West,261,0.0,0.0,86,0.00,,,0.00,VWS V14.01,2013-04-28 05:16:00,
2013-04-28 01:21:00,43.8,39.9,30.27,West,261,0.0,0.0,86,0.00,,,0.00,VWS V14.01,2013-04-28 05:21:00,
2013-04-28 01:26:00,43.6,39.7,30.27,West,261,0.0,0.0,86,0.00,,,0.00,VWS V14.01,2013-04-28 05:26:00,
2013-04-28 01:31:00,43.4,39.8,30.27,West,261,0.0,0.0,87,0.00,,,0.00,VWS V14.01,2013-04-28 05:31:00,
2013-04-28 01:36:00,43.3,40.0,30.26,West,261,0.0,0.0,88,0.00,,,0.00,VWS V14.01,2013-04-28 05:36:00,
2013-04-28 01:41:00,43.1,39.8,30.26,West,261,0.0,1.0,88,0.00,,,0.00,VWS V14.01,2013-04-28 05:41:00,
2013-04-28 01:46:00,42.8,39.5,30.26,West,261,0.0,1.0,88,0.00,,,0.00,VWS V14.01,2013-04-28 05:46:00,
2013-04-28 01:51:00,42.6,39.3,30.26,West,261,0.0,1.0,88,0.00,,,0.00,VWS V14.01,2013-04-28 05:51:00,
2013-04-28 01:56:00,42.5,39.5,30.26,West,261,0.0,1.0,89,0.00,,,0.00,VWS V14.01,2013-04-28 05:56:00,
2013-04-28 02:00:00,42.4,39.4,30.26,West,261,0.0,1.0,89,0.00,,,0.00,VWS V14.01,2013-04-28 06:00:00,
2013-04-28 02:01:00,42.5,39.5,30.26,West,261,0.0,1.0,89,0.00,,,0.00,VWS V14.01,2013-04-28 06:01:00,
2013-04-28 02:06:00,42.4,39.4,30.26,West,261,0.0,0.0,89,0.00,,,0.00,VWS V14.01,2013-04-28 06:06:00,
2013-04-28 02:11:00,42.2,39.2,30.26,West,261,0.0,0.0,89,0.00,,,0.00,VWS V14.01,2013-04-28 06:11:00,
2013-04-28 02:16:00,41.9,38.9,30.26,West,261,0.0,1.0,89,0.00,,,0.00,VWS V14.01,2013-04-28 06:16:00,
2013-04-28 02:21:00,41.8,38.8,30.26,West,261,0.0,1.0,89,0.00,,,0.00,VWS V14.01,2013-04-28 06:21:00,
2013-04-28 02:26:00,41.6,38.6,30.25,West,261,0.0,1.0,89,0.00,,,0.00,VWS V14.01,2013-04-28 06:26:00,
2013-04-28 02:30:00,41.4,38.7,30.25,West,261,0.0,1.0,90,0.00,,,0.00,VWS V14.01,2013-04-28 06:30:00,
2013-04-28 02:31:00,41.4,38.7,30.25,West,261,0.0,1.0,90,0.00,,,0.00,VWS V14.01,2013-04-28 06:31:00,
2013-04-28 02:36:00,41.4,38.7,30.25,West,261,0.0,0.0,90,0.00,,,0.00,VWS V14.01,2013-04-28 06:36:00,
2013-04-28 02:41:00,41.3,38.9,30.25,West,261,0.0,0.0,91,0.00,,,0.00,VWS V14.01,2013-04-28 06:41:00,
2013-04-28 02:46:00,41.2,38.8,30.25,West,261,0.0,0.0,91,0.00,,,0.00,VWS V14.01,2013-04-28 06:46:00,
2013-04-28 02:51:00,41.1,39.0,30.25,West,261,0.0,0.0,92,0.00,,,0.00,VWS V14.01,2013-04-28 06:51:00,
2013-04-28 02:56:00,41.1,39.0,30.25,West,261,0.0,0.0,92,0.00,,,0.00,VWS V14.01,2013-04-28 06:56:00,
2013-04-28 03:00:00,41.1,39.0,30.25,West,261,0.0,0.0,92,0.00,,,0.00,VWS V14.01,2013-04-28 07:00:00,
2013-04-28 03:01:00,41.1,39.0,30.25,West,261,0.0,0.0,92,0.00,,,0.00,VWS V14.01,2013-04-28 07:01:00,
2013-04-28 03:06:00,41.1,39.0,30.25,West,261,0.0,0.0,92,0.00,,,0.00,VWS V14.01,2013-04-28 07:06:00,
2013-04-28 03:11:00,41.0,38.9,30.25,West,261,0.0,0.0,92,0.00,,,0.00,VWS V14.01,2013-04-28 07:11:00,
2013-04-28 03:16:00,41.0,38.9,30.25,West,261,0.0,0.0,92,0.00,,,0.00,VWS V14.01,2013-04-28 07:16:00,
2013-04-28 03:21:00,40.9,38.8,30.25,West,261,0.0,0.0,92,0.00,,,0.00,VWS V14.01,2013-04-28 07:21:00,
2013-04-28 03:26:00,40.7,38.6,30.25,West,261,0.0,0.0,92,0.00,,,0.00,VWS V14.01,2013-04-28 07:26:00,
2013-04-28 03:30:00,40.6,38.5,30.25,West,261,0.0,0.0,92,0.00,,,0.00,VWS V14.01,2013-04-28 07:30:00,
2013-04-28 03:31:00,40.5,38.4,30.25,West,261,0.0,0.0,92,0.00,,,0.00,VWS V14.01,2013-04-28 07:31:00,
2013-04-28 03:36:00,40.5,38.4,30.25,West,261,0.0,0.0,92,0.00,,,0.00,VWS V14.01,2013-04-28 07:36:00,
2013-04-28 03:41:00,40.5,38.4,30.25,West,261,0.0,0.0,92,0.00,,,0.00,VWS V14.01,2013-04-28 07:41:00,
2013-04-28 03:46:00,40.7,38.8,30.25,West,261,0.0,0.0,93,0.00,,,0.00,VWS V14.01,2013-04-28 07:46:00,
2013-04-28 03:51:00,40.7,38.8,30.25,West,261,0.0,0.0,93,0.00,,,0.00,VWS V14.01,2013-04-28 07:51:00,
2013-04-28 03:56:00,40.8,38.9,30.25,West,261,0.0,0.0,93,0.00,,,0.00,VWS V14.01,2013-04-28 07:56:00,
2013-04-28 04:01:00,40.7,38.8,30.25,West,261,0.0,0.0,93,0.00,,,0.00,VWS V14.01,2013-04-28 08:01:00,
2013-04-28 04:06:00,40.8,38.9,30.25,West,261,0.0,0.0,93,0.00,,,0.00,VWS V14.01,2013-04-28 08:06:00,
2013-04-28 04:11:00,40.8,38.9,30.25,West,261,0.0,0.0,93,0.00,,,0.00,VWS V14.01,2013-04-28 08:11:00,
2013-04-28 04:16:00,40.8,38.7,30.25,West,261,0.0,0.0,92,0.00,,,0.00,VWS V14.01,2013-04-28 08:16:00,
2013-04-28 04:21:00,40.7,38.6,30.25,West,261,0.0,0.0,92,0.00,,,0.00,VWS V14.01,2013-04-28 08:21:00,
2013-04-28 04:26:00,40.7,38.6,30.25,West,261,0.0,1.0,92,0.00,,,0.00,VWS V14.01,2013-04-28 08:26:00,
2013-04-28 04:31:00,40.6,38.5,30.25,West,261,0.0,1.0,92,0.00,,,0.00,VWS V14.01,2013-04-28 08:31:00,
2013-04-28 04:36:00,40.6,38.7,30.24,West,261,0.0,0.0,93,0.00,,,0.00,VWS V14.01,2013-04-28 08:36:00,
2013-04-28 04:41:00,40.4,38.5,30.25,West,261,0.0,0.0,93,0.00,,,0.00,VWS V14.01,2013-04-28 08:41:00,
2013-04-28 04:46:00,40.2,38.1,30.25,West,261,0.0,0.0,92,0.00,,,0.00,VWS V14.01,2013-04-28 08:46:00,
2013-04-28 04:51:00,40.0,37.9,30.25,West,261,0.0,0.0,92,0.00,,,0.00,VWS V14.01,2013-04-28 08:51:00,
2013-04-28 04:56:00,39.8,38.0,30.24,West,261,0.0,0.0,93,0.00,,,0.00,VWS V14.01,2013-04-28 08:56:00,
2013-04-28 05:00:00,40.0,38.1,30.24,West,261,0.0,0.0,93,0.00,,,0.00,VWS V14.01,2013-04-28 09:00:00,
2013-04-28 05:01:00,39.9,38.0,30.24,West,261,0.0,0.0,93,0.00,,,0.00,VWS V14.01,2013-04-28 09:01:00,
2013-04-28 05:06:00,40.0,38.1,30.24,West,261,0.0,0.0,93,0.00,,,0.00,VWS V14.01,2013-04-28 09:06:00,
2013-04-28 05:11:00,40.0,38.1,30.24,West,261,0.0,0.0,93,0.00,,,0.00,VWS V14.01,2013-04-28 09:11:00,
2013-04-28 05:16:00,39.7,37.8,30.24,West,261,0.0,0.0,93,0.00,,,0.00,VWS V14.01,2013-04-28 09:16:00,
2013-04-28 05:21:00,39.7,38.1,30.24,West,261,0.0,0.0,94,0.00,,,0.00,VWS V14.01,2013-04-28 09:21:00,
2013-04-28 05:26:00,39.9,38.3,30.24,West,261,0.0,0.0,94,0.00,,,0.00,VWS V14.01,2013-04-28 09:26:00,
2013-04-28 05:31:00,39.8,38.2,30.24,West,261,0.0,0.0,94,0.00,,,0.00,VWS V14.01,2013-04-28 09:31:00,
2013-04-28 05:36:00,39.7,38.1,30.24,West,261,0.0,0.0,94,0.00,,,0.00,VWS V14.01,2013-04-28 09:36:00,
2013-04-28 05:41:00,39.8,38.2,30.24,West,261,0.0,0.0,94,0.00,,,0.00,VWS V14.01,2013-04-28 09:41:00,
2013-04-28 05:46:00,39.9,38.3,30.24,West,261,0.0,0.0,94,0.00,,,0.00,VWS V14.01,2013-04-28 09:46:00,
2013-04-28 05:51:00,39.8,38.2,30.24,West,261,0.0,1.0,94,0.00,,,0.00,VWS V14.01,2013-04-28 09:51:00,
2013-04-28 05:56:00,39.6,38.0,30.24,West,261,0.0,1.0,94,0.00,,,0.00,VWS V14.01,2013-04-28 09:56:00,
2013-04-28 06:00:00,39.7,38.1,30.24,West,261,0.0,1.0,94,0.00,,,0.00,VWS V14.01,2013-04-28 10:00:00,
2013-04-28 06:01:00,39.7,38.1,30.24,West,261,0.0,1.0,94,0.00,,,0.00,VWS V14.01,2013-04-28 10:01:00,
2013-04-28 06:06:00,39.7,38.1,30.24,West,261,0.0,0.0,94,0.00,,,0.00,VWS V14.01,2013-04-28 10:06:00,
2013-04-28 06:11:00,39.8,38.2,30.24,West,261,0.0,1.0,94,0.00,,,0.00,VWS V14.01,2013-04-28 10:11:00,
2013-04-28 06:16:00,39.8,38.2,30.25,West,261,0.0,1.0,94,0.00,,,0.00,VWS V14.01,2013-04-28 10:16:00,
2013-04-28 06:21:00,39.9,38.3,30.25,West,261,0.0,1.0,94,0.00,,,0.00,VWS V14.01,2013-04-28 10:21:00,
2013-04-28 06:26:00,40.1,38.8,30.25,West,261,0.0,1.0,95,0.00,,,0.00,VWS V14.01,2013-04-28 10:26:00,
2013-04-28 06:30:00,40.4,39.1,30.25,West,261,0.0,1.0,95,0.00,,,0.00,VWS V14.01,2013-04-28 10:30:00,
2013-04-28 06:31:00,40.4,39.1,30.25,West,261,0.0,1.0,95,0.00,,,0.00,VWS V14.01,2013-04-28 10:31:00,
2013-04-28 06:36:00,40.7,39.4,30.25,West,261,0.0,0.0,95,0.00,,,0.00,VWS V14.01,2013-04-28 10:36:00,
2013-04-28 06:41:00,41.1,39.8,30.26,West,261,1.0,1.0,95,0.00,,,0.00,VWS V14.01,2013-04-28 10:41:00,
2013-04-28 06:46:00,41.5,40.2,30.25,SE,130,1.0,3.0,95,0.00,,,0.00,VWS V14.01,2013-04-28 10:46:00,
2013-04-28 06:51:00,42.1,40.8,30.26,ESE,118,3.0,3.0,95,0.00,,,0.00,VWS V14.01,2013-04-28 10:51:00,
2013-04-28 06:56:00,42.7,41.1,30.26,ESE,105,0.0,3.0,94,0.00,,,0.00,VWS V14.01,2013-04-28 10:56:00,
2013-04-28 07:00:00,43.2,41.6,30.26,ESE,105,2.0,3.0,94,0.00,,,0.00,VWS V14.01,2013-04-28 11:00:00,
2013-04-28 07:01:00,43.1,41.5,30.26,ESE,105,0.0,3.0,94,0.00,,,0.00,VWS V14.01,2013-04-28 11:01:00,
2013-04-28 07:06:00,43.6,41.7,30.26,ESE,107,2.0,3.0,93,0.00,,,0.00,VWS V14.01,2013-04-28 11:06:00,
2013-04-28 07:11:00,44.2,42.3,30.26,ESE,107,1.0,3.0,93,0.00,,,0.00,VWS V14.01,2013-04-28 11:11:00,
2013-04-28 07:16:00,44.8,42.6,30.26,ESE,111,0.0,3.0,92,0.00,,,0.00,VWS V14.01,2013-04-28 11:16:00,
2013-04-28 07:21:00,45.4,42.9,30.26,ESE,111,1.0,3.0,91,0.00,,,0.00,VWS V14.01,2013-04-28 11:21:00,
2013-04-28 07:26:00,46.0,43.5,30.26,ESE,110,1.0,3.0,91,0.00,,,0.00,VWS V14.01,2013-04-28 11:26:00,
2013-04-28 07:31:00,46.7,43.9,30.27,ESE,113,2.0,3.0,90,0.00,,,0.00,VWS V14.01,2013-04-28 11:31:00,
2013-04-28 07:36:00,47.3,44.2,30.27,ESE,113,1.0,2.0,89,0.00,,,0.00,VWS V14.01,2013-04-28 11:36:00,
2013-04-28 07:41:00,47.8,44.1,30.27,SE,138,0.0,3.0,87,0.00,,,0.00,VWS V14.01,2013-04-28 11:41:00,
2013-04-28 07:46:00,48.3,44.6,30.27,SE,138,0.0,3.0,87,0.00,,,0.00,VWS V14.01,2013-04-28 11:46:00,
2013-04-28 07:51:00,49.0,45.0,30.27,SE,138,0.0,3.0,86,0.00,,,0.00,VWS V14.01,2013-04-28 11:51:00,
2013-04-28 07:56:00,49.8,45.2,30.27,SE,138,1.0,3.0,84,0.00,,,0.00,VWS V14.01,2013-04-28 11:56:00,
2013-04-28 08:01:00,50.3,45.0,30.27,SE,138,1.0,3.0,82,0.00,,,0.00,VWS V14.01,2013-04-28 12:01:00,
2013-04-28 08:06:00,50.8,45.5,30.28,SE,138,2.0,2.0,82,0.00,,,0.00,VWS V14.01,2013-04-28 12:06:00,
2013-04-28 08:11:00,51.0,45.4,30.28,SE,138,1.0,2.0,81,0.00,,,0.00,VWS V14.01,2013-04-28 12:11:00,
2013-04-28 08:16:00,51.3,45.7,30.28,SE,139,2.0,2.0,81,0.00,,,0.00,VWS V14.01,2013-04-28 12:16:00,
2013-04-28 08:21:00,51.7,45.7,30.28,SE,141,2.0,2.0,80,0.00,,,0.00,VWS V14.01,2013-04-28 12:21:00,
2013-04-28 08:26:00,52.1,45.8,30.28,ESE,117,2.0,2.0,79,0.00,,,0.00,VWS V14.01,2013-04-28 12:26:00,
2013-04-28 08:31:00,52.6,46.0,30.28,ESE,117,0.0,3.0,78,0.00,,,0.00,VWS V14.01,2013-04-28 12:31:00,
2013-04-28 08:36:00,52.9,45.9,30.28,ESE,117,0.0,2.0,77,0.00,,,0.00,VWS V14.01,2013-04-28 12:36:00,
2013-04-28 08:41:00,53.2,46.2,30.28,ESE,118,1.0,3.0,77,0.00,,,0.00,VWS V14.01,2013-04-28 12:41:00,
2013-04-28 08:46:00,53.5,46.1,30.28,ESE,121,1.0,3.0,76,0.00,,,0.00,VWS V14.01,2013-04-28 12:46:00,
2013-04-28 08:51:00,53.6,45.9,30.29,ESE,121,1.0,3.0,75,0.00,,,0.00,VWS V14.01,2013-04-28 12:51:00,
2013-04-28 08:56:00,53.9,46.2,30.29,ESE,121,0.0,3.0,75,0.00,,,0.00,VWS V14.01,2013-04-28 12:56:00,
2013-04-28 09:00:00,54.5,45.3,30.29,ESE,121,2.0,3.0,71,0.00,,,0.00,VWS V14.01,2013-04-28 13:00:00,
2013-04-28 09:01:00,54.4,45.2,30.29,ESE,121,0.0,3.0,71,0.00,,,0.00,VWS V14.01,2013-04-28 13:01:00,
2013-04-28 09:06:00,54.8,45.6,30.29,ESE,121,0.0,3.0,71,0.00,,,0.00,VWS V14.01,2013-04-28 13:06:00,
2013-04-28 09:11:00,55.3,46.1,30.29,ESE,121,0.0,3.0,71,0.00,,,0.00,VWS V14.01,2013-04-28 13:11:00,
2013-04-28 09:16:00,55.9,46.7,30.29,ESE,121,0.0,3.0,71,0.00,,,0.00,VWS V14.01,2013-04-28 13:16:00,
2013-04-28 09:21:00,55.6,46.4,30.30,West,271,3.0,4.0,71,0.00,,,0.00,VWS V14.01,2013-04-28 13:21:00,
2013-04-28 09:26:00,55.7,46.5,30.30,SW,223,0.0,5.0,71,0.00,,,0.00,VWS V14.01,2013-04-28 13:26:00,
2013-04-28 09:30:00,56.3,46.7,30.30,WSW,240,1.0,5.0,70,0.00,,,0.00,VWS V14.01,2013-04-28 13:30:00,
2013-04-28 09:31:00,56.2,46.9,30.30,WSW,248,3.0,5.0,71,0.00,,,0.00,VWS V14.01,2013-04-28 13:31:00,
2013-04-28 09:36:00,56.6,46.2,30.30,SW,224,3.0,4.0,68,0.00,,,0.00,VWS V14.01,2013-04-28 13:36:00,
2013-04-28 09:41:00,56.7,45.9,30.30,WSW,250,2.0,4.0,67,0.00,,,0.00,VWS V14.01,2013-04-28 13:41:00,
2013-04-28 09:46:00,56.8,46.4,30.30,WSW,246,4.0,5.0,68,0.00,,,0.00,VWS V14.01,2013-04-28 13:46:00,
2013-04-28 09:51:00,56.8,46.0,30.30,West,281,1.0,5.0,67,0.00,,,0.00,VWS V14.01,2013-04-28 13:51:00,
2013-04-28 09:56:00,57.3,46.0,30.30,West,273,1.0,5.0,66,0.00,,,0.00,VWS V14.01,2013-04-28 13:56:00,
2013-04-28 10:00:00,57.6,46.3,30.30,WNW,282,1.0,5.0,66,0.00,,,0.00,VWS V14.01,2013-04-28 14:00:00,
2013-04-28 10:01:00,57.5,46.2,30.30,WNW,282,2.0,5.0,66,0.00,,,0.00,VWS V14.01,2013-04-28 14:01:00,
2013-04-28 10:06:00,58.0,45.5,30.30,SSW,211,1.0,4.0,63,0.00,,,0.00,VWS V14.01,2013-04-28 14:06:00,
2013-04-28 10:11:00,58.8,46.2,30.30,SW,234,2.0,4.0,63,0.00,,,0.00,VWS V14.01,2013-04-28 14:11:00,
2013-04-28 10:16:00,58.5,43.8,30.30,WNW,286,3.0,6.0,58,0.00,,,0.00,VWS V14.01,2013-04-28 14:16:00,
2013-04-28 10:21:00,58.6,45.6,30.29,West,271,1.0,6.0,62,0.00,,,0.00,VWS V14.01,2013-04-28 14:21:00,
2013-04-28 10:26:00,59.1,45.2,30.29,WNW,289,1.0,6.0,60,0.00,,,0.00,VWS V14.01,2013-04-28 14:26:00,
2013-04-28 10:30:00,59.9,45.5,30.29,SSW,205,0.0,6.0,59,0.00,,,0.00,VWS V14.01,2013-04-28 14:30:00,
2013-04-28 10:31:00,59.8,45.5,30.29,WNW,286,0.0,6.0,59,0.00,,,0.00,VWS V14.01,2013-04-28 14:31:00,
2013-04-28 10:36:00,59.7,44.5,30.29,SSW,207,1.0,5.0,57,0.00,,,0.00,VWS V14.01,2013-04-28 14:36:00,
2013-04-28 10:41:00,59.3,43.2,30.29,SW,231,5.0,5.0,55,0.00,,,0.00,VWS V14.01,2013-04-28 14:41:00,
2013-04-28 10:46:00,59.1,45.2,30.29,SW,229,5.0,5.0,60,0.00,,,0.00,VWS V14.01,2013-04-28 14:46:00,
2013-04-28 10:51:00,59.7,46.2,30.29,SW,215,3.0,6.0,61,0.00,,,0.00,VWS V14.01,2013-04-28 14:51:00,
2013-04-28 10:56:00,59.9,46.4,30.29,SSE,167,3.0,6.0,61,0.00,,,0.00,VWS V14.01,2013-04-28 14:56:00,
2013-04-28 11:01:00,60.0,47.4,30.29,SSE,147,2.0,6.0,63,0.00,,,0.00,VWS V14.01,2013-04-28 15:01:00,
2013-04-28 11:06:00,59.6,46.2,30.29,East,96,2.0,5.0,61,0.00,,,0.00,VWS V14.01,2013-04-28 15:06:00,
2013-04-28 11:11:00,59.9,46.4,30.29,West,259,3.0,6.0,61,0.00,,,0.00,VWS V14.01,2013-04-28 15:11:00,
2013-04-28 11:16:00,60.7,47.6,30.29,SW,234,3.0,6.0,62,0.00,,,0.00,VWS V14.01,2013-04-28 15:16:00,
2013-04-28 11:21:00,60.3,46.4,30.28,SSW,193,3.0,6.0,60,0.00,,,0.00,VWS V14.01,2013-04-28 15:21:00,
2013-04-28 11:26:00,60.1,45.7,30.28,South,188,4.0,6.0,59,0.00,,,0.00,VWS V14.01,2013-04-28 15:26:00,
2013-04-28 11:31:00,60.4,45.6,30.28,SSW,205,1.0,6.0,58,0.00,,,0.00,VWS V14.01,2013-04-28 15:31:00,
2013-04-28 11:36:00,60.5,44.7,30.28,WSW,241,2.0,4.0,56,0.00,,,0.00,VWS V14.01,2013-04-28 15:36:00,
2013-04-28 11:41:00,60.7,43.5,30.28,SSW,203,1.0,5.0,53,0.00,,,0.00,VWS V14.01,2013-04-28 15:41:00,
2013-04-28 11:46:00,60.8,44.5,30.28,South,182,1.0,5.0,55,0.00,,,0.00,VWS V14.01,2013-04-28 15:46:00,
2013-04-28 11:51:00,61.1,45.3,30.27,SW,229,1.0,5.0,56,0.00,,,0.00,VWS V14.01,2013-04-28 15:51:00,
2013-04-28 11:56:00,61.2,45.4,30.27,South,179,1.0,5.0,56,0.00,,,0.00,VWS V14.01,2013-04-28 15:56:00,
2013-04-28 12:00:00,61.2,45.4,30.27,SW,230,2.0,5.0,56,0.00,,,0.00,VWS V14.01,2013-04-28 16:00:00,
2013-04-28 12:01:00,61.2,44.9,30.27,SW,235,1.0,5.0,55,0.00,,,0.00,VWS V14.01,2013-04-28 16:01:00,
2013-04-28 12:06:00,61.6,44.8,30.27,SSE,165,0.0,6.0,54,0.00,,,0.00,VWS V14.01,2013-04-28 16:06:00,
2013-04-28 12:11:00,62.0,45.7,30.26,South,183,0.0,6.0,55,0.00,,,0.00,VWS V14.01,2013-04-28 16:11:00,
2013-04-28 12:16:00,62.0,45.7,30.26,SW,220,4.0,6.0,55,0.00,,,0.00,VWS V14.01,2013-04-28 16:16:00,
2013-04-28 12:21:00,62.0,46.6,30.26,West,259,3.0,7.0,57,0.00,,,0.00,VWS V14.01,2013-04-28 16:21:00,
2013-04-28 12:26:00,61.5,46.6,30.26,South,169,2.0,8.0,58,0.00,,,0.00,VWS V14.01,2013-04-28 16:26:00,
2013-04-28 12:30:00,61.3,46.9,30.26,WSW,246,3.0,8.0,59,0.00,,,0.00,VWS V14.01,2013-04-28 16:30:00,
2013-04-28 12:31:00,61.3,46.9,30.26,WNW,284,3.0,8.0,59,0.00,,,0.00,VWS V14.01,2013-04-28 16:31:00,
2013-04-28 12:37:00,62.0,48.4,30.26,West,275,3.0,6.0,61,0.00,,,0.00,VWS V14.01,2013-04-28 16:37:00,
2013-04-28 12:42:00,62.7,47.7,30.26,SW,215,1.0,6.0,58,0.00,,,0.00,VWS V14.01,2013-04-28 16:42:00,
2013-04-28 12:47:00,62.7,47.7,30.25,SW,216,3.0,6.0,58,0.00,,,0.00,VWS V14.01,2013-04-28 16:47:00,
2013-04-28 12:52:00,62.3,47.3,30.25,ESE,121,2.0,6.0,58,0.00,,,0.00,VWS V14.01,2013-04-28 16:52:00,
2013-04-28 12:57:00,62.6,47.2,30.25,ESE,105,3.0,6.0,57,0.00,,,0.00,VWS V14.01,2013-04-28 16:57:00,
2013-04-28 13:02:00,61.8,46.0,30.25,West,265,2.0,9.0,56,0.00,,,0.00,VWS V14.01,2013-04-28 17:02:00,
2013-04-28 13:07:00,61.6,45.8,30.25,SSW,196,2.0,7.0,56,0.00,,,0.00,VWS V14.01,2013-04-28 17:07:00,
2013-04-28 13:12:00,61.8,46.9,30.25,WSW,239,3.0,8.0,58,0.00,,,0.00,VWS V14.01,2013-04-28 17:12:00,
2013-04-28 13:17:00,62.2,47.7,30.25,SSW,200,2.0,8.0,59,0.00,,,0.00,VWS V14.01,2013-04-28 17:17:00,
2013-04-28 13:22:00,62.0,46.6,30.25,SSW,194,2.0,8.0,57,0.00,,,0.00,VWS V14.01,2013-04-28 17:22:00,
2013-04-28 13:27:00,62.5,47.1,30.25,SW,226,1.0,8.0,57,0.00,,,0.00,VWS V14.01,2013-04-28 17:27:00,
2013-04-28 13:30:00,62.9,46.0,30.25,SW,217,2.0,8.0,54,0.00,,,0.00,VWS V14.01,2013-04-28 17:30:00,
2013-04-28 13:32:00,62.9,46.0,30.25,SW,217,2.0,8.0,54,0.00,,,0.00,VWS V14.01,2013-04-28 17:32:00,
2013-04-28 13:37:00,62.8,45.9,30.25,SSW,194,7.0,7.0,54,0.00,,,0.00,VWS V14.01,2013-04-28 17:37:00,
2013-04-28 13:42:00,62.5,46.1,30.25,SSE,150,1.0,7.0,55,0.00,,,0.00,VWS V14.01,2013-04-28 17:42:00,
2013-04-28 13:47:00,63.0,46.1,30.25,SSE,163,1.0,7.0,54,0.00,,,0.00,VWS V14.01,2013-04-28 17:47:00,
2013-04-28 13:52:00,62.8,45.4,30.25,SSE,167,2.0,7.0,53,0.00,,,0.00,VWS V14.01,2013-04-28 17:52:00,
2013-04-28 13:57:00,62.4,44.6,30.25,South,178,0.0,7.0,52,0.00,,,0.00,VWS V14.01,2013-04-28 17:57:00,
2013-04-28 14:00:00,62.7,47.3,30.25,WSW,237,4.0,7.0,57,0.00,,,0.00,VWS V14.01,2013-04-28 18:00:00,
2013-04-28 14:02:00,62.7,47.3,30.25,WNW,291,1.0,7.0,57,0.00,,,0.00,VWS V14.01,2013-04-28 18:02:00,
2013-04-28 14:07:00,62.6,45.2,30.24,SW,224,4.0,7.0,53,0.00,,,0.00,VWS V14.01,2013-04-28 18:07:00,
2013-04-28 14:12:00,62.6,46.7,30.24,WSW,254,3.0,7.0,56,0.00,,,0.00,VWS V14.01,2013-04-28 18:12:00,
2013-04-28 14:17:00,62.6,46.2,30.24,WNW,284,3.0,7.0,55,0.00,,,0.00,VWS V14.01,2013-04-28 18:17:00,
2013-04-28 14:22:00,62.9,47.0,30.24,West,271,5.0,8.0,56,0.00,,,0.00,VWS V14.01,2013-04-28 18:22:00,
2013-04-28 14:27:00,63.0,45.6,30.24,South,188,2.0,8.0,53,0.00,,,0.00,VWS V14.01,2013-04-28 18:27:00,
2013-04-28 14:32:00,62.8,44.9,30.23,SSE,168,1.0,8.0,52,0.00,,,0.00,VWS V14.01,2013-04-28 18:32:00,
2013-04-28 14:37:00,62.5,45.2,30.23,SSW,197,3.0,7.0,53,0.00,,,0.00,VWS V14.01,2013-04-28 18:37:00,
2013-04-28 14:42:00,62.6,44.8,30.23,SSW,202,7.0,7.0,52,0.00,,,0.00,VWS V14.01,2013-04-28 18:42:00,
2013-04-28 14:47:00,62.4,45.5,30.23,SSW,194,2.0,8.0,54,0.00,,,0.00,VWS V14.01,2013-04-28 18:47:00,
2013-04-28 14:52:00,62.7,46.8,30.23,SSW,199,0.0,8.0,56,0.00,,,0.00,VWS V14.01,2013-04-28 18:52:00,
2013-04-28 14:57:00,63.0,46.6,30.23,SW,228,2.0,8.0,55,0.00,,,0.00,VWS V14.01,2013-04-28 18:57:00,
2013-04-28 15:00:00,62.8,46.9,30.23,ESE,121,2.0,9.0,56,0.00,,,0.00,VWS V14.01,2013-04-28 19:00:00,
2013-04-28 15:02:00,62.8,46.9,30.23,ESE,121,2.0,9.0,56,0.00,,,0.00,VWS V14.01,2013-04-28 19:02:00,
2013-04-28 15:07:00,62.7,46.8,30.23,SSW,202,4.0,6.0,56,0.00,,,0.00,VWS V14.01,2013-04-28 19:07:00,
2013-04-28 15:12:00,62.3,46.4,30.23,SW,230,3.0,7.0,56,0.00,,,0.00,VWS V14.01,2013-04-28 19:12:00,
2013-04-28 15:17:00,61.6,46.7,30.23,WSW,254,2.0,10.0,58,0.00,,,0.00,VWS V14.01,2013-04-28 19:17:00,
2013-04-28 15:22:00,61.5,47.1,30.22,SW,217,3.0,10.0,59,0.00,,,0.00,VWS V14.01,2013-04-28 19:22:00,
2013-04-28 15:27:00,61.3,46.9,30.22,WSW,248,4.0,10.0,59,0.00,,,0.00,VWS V14.01,2013-04-28 19:27:00,
2013-04-28 15:30:00,61.2,46.8,30.22,NW,304,3.0,10.0,59,0.00,,,0.00,VWS V14.01,2013-04-28 19:30:00,
2013-04-28 15:32:00,61.2,46.8,30.22,WSW,247,5.0,5.0,59,0.00,,,0.00,VWS V14.01,2013-04-28 19:32:00,
2013-04-28 15:37:00,61.3,46.4,30.22,East,81,1.0,8.0,58,0.00,,,0.00,VWS V14.01,2013-04-28 19:37:00,
2013-04-28 15:42:00,61.5,47.1,30.22,WSW,251,1.0,9.0,59,0.00,,,0.00,VWS V14.01,2013-04-28 19:42:00,
2013-04-28 15:47:00,61.4,46.0,30.22,West,271,2.0,9.0,57,0.00,,,0.00,VWS V14.01,2013-04-28 19:47:00,
2013-04-28 15:52:00,61.0,45.7,30.22,WSW,238,5.0,9.0,57,0.00,,,0.00,VWS V14.01,2013-04-28 19:52:00,
2013-04-28 15:57:00,60.4,46.0,30.21,SW,229,1.0,9.0,59,0.00,,,0.00,VWS V14.01,2013-04-28 19:57:00,
2013-04-28 16:00:00,60.0,47.0,30.21,SSW,213,3.0,13.0,62,0.00,,,0.00,VWS V14.01,2013-04-28 20:00:00,
2013-04-28 16:02:00,60.0,47.0,30.22,SW,225,2.0,3.0,62,0.00,,,0.00,VWS V14.01,2013-04-28 20:02:00,
2013-04-28 16:07:00,59.7,46.2,30.21,SSE,159,1.0,8.0,61,0.00,,,0.00,VWS V14.01,2013-04-28 20:07:00,
2013-04-28 16:12:00,59.6,44.8,30.21,SSE,167,4.0,8.0,58,0.00,,,0.00,VWS V14.01,2013-04-28 20:12:00,
2013-04-28 16:17:00,59.6,44.4,30.21,SW,227,1.0,8.0,57,0.00,,,0.00,VWS V14.01,2013-04-28 20:17:00,
2013-04-28 16:22:00,59.7,44.9,30.21,South,188,2.0,10.0,58,0.00,,,0.00,VWS V14.01,2013-04-28 20:22:00,
2013-04-28 16:27:00,59.8,45.9,30.20,SW,234,4.0,11.0,60,0.00,,,0.00,VWS V14.01,2013-04-28 20:27:00,
2013-04-28 16:32:00,59.7,47.1,30.20,WNW,297,1.0,2.0,63,0.00,,,0.00,VWS V14.01,2013-04-28 20:32:00,
2013-04-28 16:37:00,59.5,45.6,30.20,South,179,0.0,7.0,60,0.00,,,0.00,VWS V14.01,2013-04-28 20:37:00,
2013-04-28 16:42:00,59.5,45.6,30.21,WSW,248,6.0,11.0,60,0.00,,,0.00,VWS V14.01,2013-04-28 20:42:00,
2013-04-28 16:47:00,59.1,45.2,30.21,WSW,244,5.0,11.0,60,0.00,,,0.00,VWS V14.01,2013-04-28 20:47:00,
2013-04-28 16:52:00,59.1,45.7,30.21,South,184,6.0,11.0,61,0.00,,,0.00,VWS V14.01,2013-04-28 20:52:00,
2013-04-28 16:57:00,59.1,45.7,30.21,SSW,212,5.0,11.0,61,0.00,,,0.00,VWS V14.01,2013-04-28 20:57:00,
2013-04-28 17:00:00,58.6,45.6,30.21,SSW,211,5.0,11.0,62,0.00,,,0.00,VWS V14.01,2013-04-28 21:00:00,
2013-04-28 17:02:00,58.6,45.6,30.21,SW,215,1.0,5.0,62,0.00,,,0.00,VWS V14.01,2013-04-28 21:02:00,
2013-04-28 17:07:00,58.2,46.1,30.21,West,274,3.0,10.0,64,0.00,,,0.00,VWS V14.01,2013-04-28 21:07:00,
2013-04-28 17:12:00,57.9,46.2,30.21,SSW,194,7.0,10.0,65,0.00,,,0.00,VWS V14.01,2013-04-28 21:12:00,
2013-04-28 17:17:00,57.5,45.8,30.21,West,262,10.0,11.0,65,0.00,,,0.00,VWS V14.01,2013-04-28 21:17:00,
2013-04-28 17:22:00,57.4,45.3,30.21,SW,225,8.0,11.0,64,0.00,,,0.00,VWS V14.01,2013-04-28 21:22:00,
2013-04-28 17:27:00,57.1,45.5,30.21,WSW,240,5.0,11.0,65,0.00,,,0.00,VWS V14.01,2013-04-28 21:27:00,
2013-04-28 17:30:00,57.1,45.9,30.21,SSW,200,2.0,11.0,66,0.00,,,0.00,VWS V14.01,2013-04-28 21:30:00,
2013-04-28 17:32:00,57.1,45.9,30.21,SW,221,2.0,3.0,66,0.00,,,0.00,VWS V14.01,2013-04-28 21:32:00,
2013-04-28 17:37:00,57.0,45.4,30.21,SW,229,6.0,10.0,65,0.00,,,0.00,VWS V14.01,2013-04-28 21:37:00,
2013-04-28 17:42:00,56.8,46.0,30.21,SW,217,3.0,10.0,67,0.00,,,0.00,VWS V14.01,2013-04-28 21:42:00,
2013-04-28 17:47:00,57.1,46.3,30.21,SW,223,5.0,10.0,67,0.00,,,0.00,VWS V14.01,2013-04-28 21:47:00,
2013-04-28 17:52:00,56.9,46.5,30.21,SW,233,2.0,10.0,68,0.00,,,0.00,VWS V14.01,2013-04-28 21:52:00,
2013-04-28 17:57:00,56.7,47.4,30.22,SW,219,6.0,10.0,71,0.00,,,0.00,VWS V14.01,2013-04-28 21:57:00,
2013-04-28 18:02:00,56.4,47.5,30.22,SSW,197,5.0,10.0,72,0.00,,,0.00,VWS V14.01,2013-04-28 22:02:00,
2013-04-28 18:07:00,56.0,47.8,30.22,SW,233,4.0,8.0,74,0.00,,,0.00,VWS V14.01,2013-04-28 22:07:00,
2013-04-28 18:12:00,55.5,48.1,30.22,South,191,2.0,8.0,76,0.00,,,0.00,VWS V14.01,2013-04-28 22:12:00,
2013-04-28 18:17:00,55.0,48.3,30.22,SW,232,5.0,8.0,78,0.00,,,0.00,VWS V14.01,2013-04-28 22:17:00,
2013-04-28 18:22:00,54.5,48.1,30.22,SSW,195,0.0,9.0,79,0.00,,,0.00,VWS V14.01,2013-04-28 22:22:00,
2013-04-28 18:27:00,54.2,47.8,30.22,WSW,240,1.0,9.0,79,0.00,,,0.00,VWS V14.01,2013-04-28 22:27:00,
2013-04-28 18:32:00,54.0,47.3,30.22,WSW,250,2.0,4.0,78,0.00,,,0.00,VWS V14.01,2013-04-28 22:32:00,
2013-04-28 18:37:00,53.8,47.5,30.22,South,184,2.0,6.0,79,0.00,,,0.00,VWS V14.01,2013-04-28 22:37:00,
2013-04-28 18:42:00,53.5,46.8,30.22,WNW,298,2.0,10.0,78,0.00,,,0.00,VWS V14.01,2013-04-28 22:42:00,
2013-04-28 18:47:00,53.3,46.3,30.22,South,184,1.0,10.0,77,0.00,,,0.00,VWS V14.01,2013-04-28 22:47:00,
2013-04-28 18:52:00,53.1,46.4,30.22,South,186,1.0,10.0,78,0.00,,,0.00,VWS V14.01,2013-04-28 22:52:00,
2013-04-28 18:57:00,52.8,46.1,30.22,WSW,250,0.0,10.0,78,0.00,,,0.00,VWS V14.01,2013-04-28 22:57:00,
2013-04-28 19:02:00,52.6,46.3,30.22,WSW,244,2.0,7.0,79,0.00,,,0.00,VWS V14.01,2013-04-28 23:02:00,
2013-04-28 19:07:00,52.3,46.3,30.22,SSW,205,2.0,7.0,80,0.00,,,0.00,VWS V14.01,2013-04-28 23:07:00,
2013-04-28 19:12:00,52.1,45.8,30.22,South,174,7.0,7.0,79,0.00,,,0.00,VWS V14.01,2013-04-28 23:12:00,
2013-04-28 19:17:00,51.9,45.6,30.22,South,186,3.0,7.0,79,0.00,,,0.00,VWS V14.01,2013-04-28 23:17:00,
2013-04-28 19:22:00,51.8,45.5,30.21,South,178,2.0,7.0,79,0.00,,,0.00,VWS V14.01,2013-04-28 23:22:00,
2013-04-28 19:27:00,51.7,45.4,30.21,SSW,196,1.0,7.0,79,0.00,,,0.00,VWS V14.01,2013-04-28 23:27:00,
2013-04-28 19:30:00,51.6,45.3,30.21,SW,216,0.0,7.0,79,0.00,,,0.00,VWS V14.01,2013-04-28 23:30:00,
2013-04-28 19:33:00,51.5,44.9,30.21,South,177,0.0,2.0,78,0.00,,,0.00,VWS V14.01,2013-04-28 23:33:00,
2013-04-28 19:38:00,51.4,44.4,30.21,SW,234,0.0,7.0,77,0.00,,,0.00,VWS V14.01,2013-04-28 23:38:00,
2013-04-28 19:43:00,51.4,44.4,30.21,WSW,255,1.0,7.0,77,0.00,,,0.00,VWS V14.01,2013-04-28 23:43:00,
2013-04-28 19:48:00,51.4,44.8,30.21,SSW,204,3.0,7.0,78,0.00,,,0.00,VWS V14.01,2013-04-28 23:48:00,
2013-04-28 19:53:00,51.4,45.1,30.21,SW,214,1.0,7.0,79,0.00,,,0.00,VWS V14.01,2013-04-28 23:53:00,
2013-04-28 19:58:00,51.4,45.5,30.21,SE,126,2.0,7.0,80,0.00,,,0.00,VWS V14.01,2013-04-28 23:58:00,
2013-04-28 20:00:00,51.3,45.3,30.21,South,181,1.0,7.0,80,0.00,,,0.00,VWS V14.01,2013-04-29 00:00:00,
2013-04-28 20:03:00,51.3,45.3,30.22,SE,144,3.0,4.0,80,0.00,,,0.00,VWS V14.01,2013-04-29 00:03:00,
2013-04-28 20:08:00,51.3,45.0,30.21,SSE,153,1.0,6.0,79,0.00,,,0.00,VWS V14.01,2013-04-29 00:08:00,
2013-04-28 20:13:00,51.3,45.3,30.21,SW,225,3.0,7.0,80,0.00,,,0.00,VWS V14.01,2013-04-29 00:13:00,
2013-04-28 20:18:00,51.3,45.7,30.21,South,188,0.0,7.0,81,0.00,,,0.00,VWS V14.01,2013-04-29 00:18:00,
2013-04-28 20:23:00,51.3,45.7,30.21,SSW,194,4.0,7.0,81,0.00,,,0.00,VWS V14.01,2013-04-29 00:23:00,
2013-04-28 20:28:00,51.2,45.2,30.21,South,187,2.0,7.0,80,0.00,,,0.00,VWS V14.01,2013-04-29 00:28:00,
2013-04-28 20:30:00,51.2,44.9,30.21,SSE,155,2.0,7.0,79,0.00,,,0.00,VWS V14.01,2013-04-29 00:30:00,
2013-04-28 20:33:00,51.2,44.9,30.21,South,185,2.0,4.0,79,0.00,,,0.00,VWS V14.01,2013-04-29 00:33:00,
2013-04-28 20:38:00,51.2,45.2,30.20,SSE,155,1.0,5.0,80,0.00,,,0.00,VWS V14.01,2013-04-29 00:38:00,
2013-04-28 20:43:00,51.3,45.7,30.20,SSE,161,1.0,6.0,81,0.00,,,0.00,VWS V14.01,2013-04-29 00:43:00,
2013-04-28 20:48:00,51.3,46.0,30.20,South,175,2.0,6.0,82,0.00,,,0.00,VWS V14.01,2013-04-29 00:48:00,
2013-04-28 20:53:00,51.3,46.6,30.20,SSW,201,1.0,6.0,84,0.00,,,0.00,VWS V14.01,2013-04-29 00:53:00,
2013-04-28 20:58:00,51.3,47.0,30.20,South,176,0.0,6.0,85,0.00,,,0.00,VWS V14.01,2013-04-29 00:58:00,
2013-04-28 21:00:00,51.2,46.8,30.20,South,173,1.0,6.0,85,0.00,,,0.00,VWS V14.01,2013-04-29 01:00:00,
2013-04-28 21:03:00,51.2,46.8,30.20,SSE,167,2.0,7.0,85,0.00,,,0.00,VWS V14.01,2013-04-29 01:03:00,
2013-04-28 21:08:00,51.1,46.8,30.20,SSE,161,2.0,7.0,85,0.00,,,0.00,VWS V14.01,2013-04-29 01:08:00,
2013-04-28 21:13:00,51.0,46.7,30.21,South,173,1.0,7.0,85,0.00,,,0.00,VWS V14.01,2013-04-29 01:13:00,
2013-04-28 21:18:00,50.9,46.9,30.21,SSW,211,2.0,7.0,86,0.00,,,0.00,VWS V14.01,2013-04-29 01:18:00,
2013-04-28 21:23:00,50.8,46.8,30.21,SSE,161,1.0,7.0,86,0.00,,,0.00,VWS V14.01,2013-04-29 01:23:00,
2013-04-28 21:28:00,50.7,46.7,30.21,SE,128,0.0,7.0,86,0.00,,,0.00,VWS V14.01,2013-04-29 01:28:00,
2013-04-28 21:30:00,50.6,46.6,30.21,South,186,2.0,7.0,86,0.00,,,0.00,VWS V14.01,2013-04-29 01:30:00,
2013-04-28 21:33:00,50.6,46.6,30.21,South,191,2.0,2.0,86,0.00,,,0.00,VWS V14.01,2013-04-29 01:33:00,
2013-04-28 21:38:00,50.5,46.5,30.21,SW,219,2.0,4.0,86,0.00,,,0.00,VWS V14.01,2013-04-29 01:38:00,
2013-04-28 21:43:00,50.4,46.7,30.21,SW,215,0.0,5.0,87,0.00,,,0.00,VWS V14.01,2013-04-29 01:43:00,
2013-04-28 21:48:00,50.3,46.6,30.21,South,182,0.0,5.0,87,0.00,,,0.00,VWS V14.01,2013-04-29 01:48:00,
2013-04-28 21:53:00,50.3,46.9,30.21,South,182,0.0,5.0,88,0.00,,,0.00,VWS V14.01,2013-04-29 01:53:00,
2013-04-28 21:58:00,50.2,46.8,30.21,South,183,0.0,5.0,88,0.00,,,0.00,VWS V14.01,2013-04-29 01:58:00,
2013-04-28 22:03:00,50.1,46.7,30.22,South,182,0.0,3.0,88,0.00,,,0.00,VWS V14.01,2013-04-29 02:03:00,
2013-04-28 22:08:00,50.0,46.6,30.21,South,183,0.0,3.0,88,0.00,,,0.00,VWS V14.01,2013-04-29 02:08:00,
2013-04-28 22:13:00,50.0,46.6,30.21,South,184,0.0,4.0,88,0.00,,,0.00,VWS V14.01,2013-04-29 02:13:00,
2013-04-28 22:18:00,49.9,46.8,30.22,South,184,0.0,4.0,89,0.00,,,0.00,VWS V14.01,2013-04-29 02:18:00,
2013-04-28 22:23:00,49.8,46.7,30.22,South,184,0.0,4.0,89,0.00,,,0.00,VWS V14.01,2013-04-29 02:23:00,
2013-04-28 22:28:00,49.8,46.7,30.22,South,184,0.0,4.0,89,0.00,,,0.00,VWS V14.01,2013-04-29 02:28:00,
2013-04-28 22:30:00,49.7,46.6,30.22,South,184,0.0,4.0,89,0.00,,,0.00,VWS V14.01,2013-04-29 02:30:00,
2013-04-28 22:33:00,49.7,46.6,30.22,South,184,0.0,0.0,89,0.00,,,0.00,VWS V14.01,2013-04-29 02:33:00,
2013-04-28 22:38:00,49.6,46.5,30.22,South,184,0.0,3.0,89,0.00,,,0.00,VWS V14.01,2013-04-29 02:38:00,
2013-04-28 22:43:00,49.5,46.4,30.22,South,184,0.0,3.0,89,0.00,,,0.00,VWS V14.01,2013-04-29 02:43:00,
2013-04-28 22:48:00,49.5,46.4,30.22,South,184,0.0,3.0,89,0.00,,,0.00,VWS V14.01,2013-04-29 02:48:00,
2013-04-28 22:53:00,49.4,46.6,30.22,South,184,0.0,3.0,90,0.00,,,0.00,VWS V14.01,2013-04-29 02:53:00,
2013-04-28 22:58:00,49.3,46.2,30.21,South,184,0.0,3.0,89,0.00,,,0.00,VWS V14.01,2013-04-29 02:58:00,
2013-04-28 23:03:00,49.2,46.4,30.22,South,184,0.0,1.0,90,0.00,,,0.00,VWS V14.01,2013-04-29 03:03:00,
2013-04-28 23:08:00,49.1,46.3,30.22,South,184,0.0,1.0,90,0.00,,,0.00,VWS V14.01,2013-04-29 03:08:00,
2013-04-28 23:13:00,49.1,46.3,30.22,South,184,0.0,1.0,90,0.00,,,0.00,VWS V14.01,2013-04-29 03:13:00,
2013-04-28 23:18:00,49.0,46.2,30.22,South,184,0.0,2.0,90,0.00,,,0.00,VWS V14.01,2013-04-29 03:18:00,
2013-04-28 23:23:00,49.0,46.2,30.22,South,184,0.0,2.0,90,0.00,,,0.00,VWS V14.01,2013-04-29 03:23:00,
2013-04-28 23:28:00,49.0,46.5,30.22,South,184,0.0,2.0,91,0.00,,,0.00,VWS V14.01,2013-04-29 03:28:00,
2013-04-28 23:33:00,49.1,46.6,30.22,South,184,0.0,0.0,91,0.00,,,0.00,VWS V14.01,2013-04-29 03:33:00,
2013-04-28 23:38:00,49.1,46.6,30.22,South,184,0.0,2.0,91,0.00,,,0.00,VWS V14.01,2013-04-29 03:38:00,
2013-04-28 23:43:00,49.1,46.6,30.22,South,184,0.0,2.0,91,0.00,,,0.00,VWS V14.01,2013-04-29 03:43:00,
2013-04-28 23:48:00,49.1,46.6,30.22,South,184,0.0,2.0,91,0.00,,,0.00,VWS V14.01,2013-04-29 03:48:00,
2013-04-28 23:53:00,49.0,46.5,30.22,South,184,0.0,2.0,91,0.00,,,0.00,VWS V14.01,2013-04-29 03:53:00,
2013-04-28 23:58:00,49.0,46.5,30.22,South,184,0.0,2.0,91,0.00,,,0.00,VWS V14.01,2013-04-29 03:58:00,